Terminal Aerodrome Forecast
Issued by NWS

Home | Current Version | Previous Version | Text Only | Print | Product List | Glossary On
Versions: 1 2 3 4 5 6 7 8 9 10 11 12 13 14 15 16 17 18 19 20 21 22 23 24 25 26 27 28 29 30 31 32 33 34
773
FTUS41 KOKX 022134 AAB
TAFHPN
TAF AMD
KHPN 022134Z 0222/0318 27009G15KT P6SM FEW040 BKN060
     FM030400 29012KT P6SM SCT040
     FM031300 31015G25KT P6SM BKN040
     FM031700 31017G28KT P6SM BKN040
      AMD NOT SKED=

USA.gov is the U.S. government's official web portal to all federal, state and local government web resources and services.